sensor_id;sensor_type;location;lat;lon;timestamp;P1;durP1;ratioP1;P2;durP2;ratioP2
65971;SDS011;52726;48.852;9.152;2022-08-19T00:01:23;13.05;;;8.93;;
65971;SDS011;52726;48.852;9.152;2022-08-19T00:03:50;15.60;;;9.95;;
65971;SDS011;52726;48.852;9.152;2022-08-19T00:06:15;12.77;;;8.85;;
65971;SDS011;52726;48.852;9.152;2022-08-19T00:08:41;13.35;;;8.95;;
65971;SDS011;52726;48.852;9.152;2022-08-19T00:11:07;12.23;;;9.10;;
65971;SDS011;52726;48.852;9.152;2022-08-19T00:13:33;13.82;;;8.88;;
65971;SDS011;52726;48.852;9.152;2022-08-19T00:15:59;13.43;;;9.18;;
65971;SDS011;52726;48.852;9.152;2022-08-19T00:18:24;15.25;;;9.68;;
65971;SDS011;52726;48.852;9.152;2022-08-19T00:20:50;15.45;;;9.10;;
65971;SDS011;52726;48.852;9.152;2022-08-19T00:23:16;14.50;;;9.18;;
65971;SDS011;52726;48.852;9.152;2022-08-19T00:25:41;14.50;;;9.52;;
65971;SDS011;52726;48.852;9.152;2022-08-19T00:28:07;14.90;;;9.68;;
65971;SDS011;52726;48.852;9.152;2022-08-19T00:30:32;14.98;;;9.35;;
65971;SDS011;52726;48.852;9.152;2022-08-19T00:32:57;13.60;;;9.10;;
65971;SDS011;52726;48.852;9.152;2022-08-19T00:35:23;17.70;;;7.95;;
65971;SDS011;52726;48.852;9.152;2022-08-19T00:37:49;14.50;;;9.23;;
65971;SDS011;52726;48.852;9.152;2022-08-19T00:40:15;11.98;;;8.68;;
65971;SDS011;52726;48.852;9.152;2022-08-19T00:42:42;13.15;;;9.05;;
65971;SDS011;52726;48.852;9.152;2022-08-19T00:45:10;18.88;;;10.40;;
65971;SDS011;52726;48.852;9.152;2022-08-19T00:47:39;14.10;;;9.13;;
65971;SDS011;52726;48.852;9.152;2022-08-19T00:50:05;16.48;;;9.90;;
65971;SDS011;52726;48.852;9.152;2022-08-19T00:52:35;13.30;;;8.98;;
65971;SDS011;52726;48.852;9.152;2022-08-19T00:55:05;16.00;;;9.57;;
65971;SDS011;52726;48.852;9.152;2022-08-19T00:57:36;14.85;;;9.23;;
65971;SDS011;52726;48.852;9.152;2022-08-19T01:00:09;14.77;;;10.13;;
65971;SDS011;52726;48.852;9.152;2022-08-19T01:02:38;12.98;;;9.18;;
65971;SDS011;52726;48.852;9.152;2022-08-19T01:05:05;14.20;;;9.82;;
65971;SDS011;52726;48.852;9.152;2022-08-19T01:07:33;14.52;;;8.93;;
65971;SDS011;52726;48.852;9.152;2022-08-19T01:09:59;13.07;;;8.77;;
65971;SDS011;52726;48.852;9.152;2022-08-19T01:12:26;12.68;;;9.02;;
65971;SDS011;52726;48.852;9.152;2022-08-19T01:14:51;14.90;;;9.25;;
65971;SDS011;52726;48.852;9.152;2022-08-19T01:17:18;14.95;;;9.30;;
65971;SDS011;52726;48.852;9.152;2022-08-19T01:19:45;16.10;;;9.27;;
65971;SDS011;52726;48.852;9.152;2022-08-19T01:22:12;14.38;;;9.75;;
65971;SDS011;52726;48.852;9.152;2022-08-19T01:24:43;15.50;;;9.60;;
65971;SDS011;52726;48.852;9.152;2022-08-19T01:27:09;15.55;;;9.90;;
65971;SDS011;52726;48.852;9.152;2022-08-19T01:29:34;18.92;;;10.70;;
65971;SDS011;52726;48.852;9.152;2022-08-19T01:32:06;20.80;;;11.40;;
65971;SDS011;52726;48.852;9.152;2022-08-19T01:34:33;19.95;;;10.63;;
65971;SDS011;52726;48.852;9.152;2022-08-19T01:36:59;18.77;;;11.13;;
65971;SDS011;52726;48.852;9.152;2022-08-19T01:39:27;14.93;;;9.95;;
65971;SDS011;52726;48.852;9.152;2022-08-19T01:41:53;14.88;;;10.65;;
65971;SDS011;52726;48.852;9.152;2022-08-19T01:44:19;15.55;;;10.48;;
65971;SDS011;52726;48.852;9.152;2022-08-19T01:46:48;15.30;;;10.82;;
65971;SDS011;52726;48.852;9.152;2022-08-19T01:49:16;15.90;;;10.90;;
65971;SDS011;52726;48.852;9.152;2022-08-19T01:51:43;16.10;;;10.80;;
65971;SDS011;52726;48.852;9.152;2022-08-19T01:54:09;18.83;;;11.45;;
65971;SDS011;52726;48.852;9.152;2022-08-19T01:56:36;17.17;;;11.13;;
65971;SDS011;52726;48.852;9.152;2022-08-19T01:59:02;18.23;;;11.00;;
65971;SDS011;52726;48.852;9.152;2022-08-19T02:01:30;20.55;;;10.88;;
65971;SDS011;52726;48.852;9.152;2022-08-19T02:03:59;19.25;;;11.38;;
65971;SDS011;52726;48.852;9.152;2022-08-19T02:06:28;18.58;;;12.40;;
65971;SDS011;52726;48.852;9.152;2022-08-19T02:08:53;18.52;;;11.73;;
65971;SDS011;52726;48.852;9.152;2022-08-19T02:11:21;21.27;;;12.48;;
65971;SDS011;52726;48.852;9.152;2022-08-19T02:13:48;18.33;;;11.27;;
65971;SDS011;52726;48.852;9.152;2022-08-19T02:16:14;18.75;;;11.75;;
65971;SDS011;52726;48.852;9.152;2022-08-19T02:18:40;17.48;;;11.48;;
65971;SDS011;52726;48.852;9.152;2022-08-19T02:21:05;18.20;;;12.20;;
65971;SDS011;52726;48.852;9.152;2022-08-19T02:23:31;19.25;;;12.68;;
65971;SDS011;52726;48.852;9.152;2022-08-19T02:25:56;19.10;;;12.63;;
65971;SDS011;52726;48.852;9.152;2022-08-19T02:28:22;17.83;;;11.80;;
65971;SDS011;52726;48.852;9.152;2022-08-19T02:30:47;20.40;;;12.38;;
65971;SDS011;52726;48.852;9.152;2022-08-19T02:33:13;20.00;;;12.25;;
65971;SDS011;52726;48.852;9.152;2022-08-19T02:35:45;20.40;;;12.73;;
65971;SDS011;52726;48.852;9.152;2022-08-19T02:38:11;20.73;;;12.75;;
65971;SDS011;52726;48.852;9.152;2022-08-19T02:40:54;23.17;;;14.07;;
65971;SDS011;52726;48.852;9.152;2022-08-19T02:43:23;24.00;;;12.93;;
65971;SDS011;52726;48.852;9.152;2022-08-19T02:45:49;23.85;;;14.48;;
65971;SDS011;52726;48.852;9.152;2022-08-19T02:48:16;20.42;;;12.60;;
65971;SDS011;52726;48.852;9.152;2022-08-19T02:50:43;18.85;;;12.75;;
65971;SDS011;52726;48.852;9.152;2022-08-19T02:53:10;18.08;;;12.68;;
65971;SDS011;52726;48.852;9.152;2022-08-19T02:55:35;17.88;;;12.25;;
65971;SDS011;52726;48.852;9.152;2022-08-19T02:58:01;22.58;;;13.05;;
65971;SDS011;52726;48.852;9.152;2022-08-19T03:00:26;21.98;;;12.93;;
65971;SDS011;52726;48.852;9.152;2022-08-19T03:02:52;22.58;;;13.70;;
65971;SDS011;52726;48.852;9.152;2022-08-19T03:05:18;21.45;;;12.68;;
65971;SDS011;52726;48.852;9.152;2022-08-19T03:07:44;19.40;;;13.18;;
65971;SDS011;52726;48.852;9.152;2022-08-19T03:10:11;21.52;;;13.05;;
65971;SDS011;52726;48.852;9.152;2022-08-19T03:12:37;23.30;;;13.60;;
65971;SDS011;52726;48.852;9.152;2022-08-19T03:15:04;21.60;;;12.68;;
65971;SDS011;52726;48.852;9.152;2022-08-19T03:17:32;23.10;;;13.35;;
65971;SDS011;52726;48.852;9.152;2022-08-19T03:20:01;19.23;;;13.05;;
65971;SDS011;52726;48.852;9.152;2022-08-19T03:22:27;22.08;;;14.65;;
65971;SDS011;52726;48.852;9.152;2022-08-19T03:24:52;23.48;;;13.57;;
65971;SDS011;52726;48.852;9.152;2022-08-19T03:27:18;27.10;;;14.15;;
65971;SDS011;52726;48.852;9.152;2022-08-19T03:29:44;23.55;;;14.82;;
65971;SDS011;52726;48.852;9.152;2022-08-19T03:32:09;22.40;;;14.88;;
65971;SDS011;52726;48.852;9.152;2022-08-19T03:34:36;23.00;;;14.18;;
65971;SDS011;52726;48.852;9.152;2022-08-19T03:37:04;21.33;;;14.70;;
65971;SDS011;52726;48.852;9.152;2022-08-19T03:39:32;20.20;;;13.30;;
65971;SDS011;52726;48.852;9.152;2022-08-19T03:41:58;21.65;;;13.20;;
65971;SDS011;52726;48.852;9.152;2022-08-19T03:44:27;22.65;;;14.43;;
65971;SDS011;52726;48.852;9.152;2022-08-19T03:46:54;21.33;;;14.38;;
65971;SDS011;52726;48.852;9.152;2022-08-19T03:49:21;20.20;;;13.75;;
65971;SDS011;52726;48.852;9.152;2022-08-19T03:51:49;24.77;;;14.60;;
65971;SDS011;52726;48.852;9.152;2022-08-19T03:54:16;23.25;;;15.63;;
65971;SDS011;52726;48.852;9.152;2022-08-19T03:56:44;24.13;;;15.00;;
65971;SDS011;52726;48.852;9.152;2022-08-19T03:59:13;22.75;;;15.38;;
65971;SDS011;52726;48.852;9.152;2022-08-19T04:01:41;23.80;;;15.15;;
65971;SDS011;52726;48.852;9.152;2022-08-19T04:04:07;19.58;;;14.32;;
65971;SDS011;52726;48.852;9.152;2022-08-19T04:06:33;22.98;;;15.55;;
65971;SDS011;52726;48.852;9.152;2022-08-19T04:09:02;23.73;;;16.02;;
65971;SDS011;52726;48.852;9.152;2022-08-19T04:11:31;24.33;;;16.38;;
65971;SDS011;52726;48.852;9.152;2022-08-19T04:14:00;25.65;;;15.70;;
65971;SDS011;52726;48.852;9.152;2022-08-19T04:16:28;21.55;;;13.98;;
65971;SDS011;52726;48.852;9.152;2022-08-19T04:18:54;23.65;;;15.18;;
65971;SDS011;52726;48.852;9.152;2022-08-19T04:21:21;26.00;;;15.88;;
65971;SDS011;52726;48.852;9.152;2022-08-19T04:23:48;28.25;;;16.35;;
65971;SDS011;52726;48.852;9.152;2022-08-19T04:26:15;22.10;;;15.60;;
65971;SDS011;52726;48.852;9.152;2022-08-19T04:28:42;24.48;;;15.98;;
65971;SDS011;52726;48.852;9.152;2022-08-19T04:31:12;24.10;;;15.98;;
65971;SDS011;52726;48.852;9.152;2022-08-19T04:33:43;20.80;;;15.30;;
65971;SDS011;52726;48.852;9.152;2022-08-19T04:36:19;24.90;;;15.80;;
65971;SDS011;52726;48.852;9.152;2022-08-19T04:38:50;23.50;;;14.60;;
65971;SDS011;52726;48.852;9.152;2022-08-19T04:41:19;25.77;;;15.13;;
65971;SDS011;52726;48.852;9.152;2022-08-19T04:44:03;22.63;;;15.48;;
65971;SDS011;52726;48.852;9.152;2022-08-19T04:46:29;21.77;;;15.05;;
65971;SDS011;52726;48.852;9.152;2022-08-19T04:48:57;24.85;;;15.48;;
65971;SDS011;52726;48.852;9.152;2022-08-19T04:51:24;21.80;;;15.43;;
65971;SDS011;52726;48.852;9.152;2022-08-19T04:53:50;20.52;;;14.63;;
65971;SDS011;52726;48.852;9.152;2022-08-19T04:56:17;21.50;;;15.43;;
65971;SDS011;52726;48.852;9.152;2022-08-19T04:58:46;24.15;;;15.40;;
65971;SDS011;52726;48.852;9.152;2022-08-19T05:01:12;21.27;;;15.23;;
65971;SDS011;52726;48.852;9.152;2022-08-19T05:03:42;20.60;;;14.75;;
65971;SDS011;52726;48.852;9.152;2022-08-19T05:06:09;24.60;;;14.90;;
65971;SDS011;52726;48.852;9.152;2022-08-19T05:08:37;21.10;;;15.05;;
65971;SDS011;52726;48.852;9.152;2022-08-19T05:13:42;23.52;;;15.13;;
65971;SDS011;52726;48.852;9.152;2022-08-19T05:16:08;23.30;;;15.75;;
65971;SDS011;52726;48.852;9.152;2022-08-19T05:18:35;22.25;;;15.52;;
65971;SDS011;52726;48.852;9.152;2022-08-19T05:21:19;24.00;;;15.45;;
65971;SDS011;52726;48.852;9.152;2022-08-19T05:24:05;26.52;;;15.52;;
65971;SDS011;52726;48.852;9.152;2022-08-19T05:26:34;22.20;;;15.75;;
65971;SDS011;52726;48.852;9.152;2022-08-19T05:29:03;24.83;;;15.68;;
65971;SDS011;52726;48.852;9.152;2022-08-19T05:31:29;21.40;;;15.75;;
65971;SDS011;52726;48.852;9.152;2022-08-19T05:33:56;22.10;;;16.40;;
65971;SDS011;52726;48.852;9.152;2022-08-19T05:36:23;21.75;;;14.80;;
65971;SDS011;52726;48.852;9.152;2022-08-19T05:38:49;23.40;;;15.45;;
65971;SDS011;52726;48.852;9.152;2022-08-19T05:41:17;26.27;;;15.68;;
65971;SDS011;52726;48.852;9.152;2022-08-19T05:43:45;25.02;;;16.77;;
65971;SDS011;52726;48.852;9.152;2022-08-19T05:46:35;24.20;;;15.48;;
65971;SDS011;52726;48.852;9.152;2022-08-19T05:49:02;25.15;;;15.38;;
65971;SDS011;52726;48.852;9.152;2022-08-19T05:51:32;22.73;;;16.33;;
65971;SDS011;52726;48.852;9.152;2022-08-19T05:53:59;25.77;;;15.90;;
65971;SDS011;52726;48.852;9.152;2022-08-19T05:56:25;28.13;;;17.00;;
65971;SDS011;52726;48.852;9.152;2022-08-19T05:58:51;26.55;;;15.50;;
65971;SDS011;52726;48.852;9.152;2022-08-19T06:01:19;28.15;;;17.73;;
65971;SDS011;52726;48.852;9.152;2022-08-19T06:03:44;25.40;;;15.93;;
65971;SDS011;52726;48.852;9.152;2022-08-19T06:06:11;24.05;;;15.02;;
65971;SDS011;52726;48.852;9.152;2022-08-19T06:08:38;22.23;;;15.57;;
65971;SDS011;52726;48.852;9.152;2022-08-19T06:14:03;21.40;;;15.82;;
65971;SDS011;52726;48.852;9.152;2022-08-19T06:16:33;24.63;;;14.65;;
65971;SDS011;52726;48.852;9.152;2022-08-19T06:19:00;25.45;;;15.07;;
65971;SDS011;52726;48.852;9.152;2022-08-19T06:21:28;23.20;;;15.63;;
65971;SDS011;52726;48.852;9.152;2022-08-19T06:23:55;27.80;;;16.13;;
65971;SDS011;52726;48.852;9.152;2022-08-19T06:26:21;22.48;;;15.02;;
65971;SDS011;52726;48.852;9.152;2022-08-19T06:28:47;23.55;;;15.52;;
65971;SDS011;52726;48.852;9.152;2022-08-19T06:31:17;21.67;;;14.80;;
65971;SDS011;52726;48.852;9.152;2022-08-19T06:33:48;29.20;;;14.80;;
65971;SDS011;52726;48.852;9.152;2022-08-19T06:36:18;24.58;;;15.15;;
65971;SDS011;52726;48.852;9.152;2022-08-19T06:38:59;21.52;;;14.68;;
65971;SDS011;52726;48.852;9.152;2022-08-19T06:41:26;26.13;;;15.20;;
65971;SDS011;52726;48.852;9.152;2022-08-19T06:43:51;23.23;;;15.70;;
65971;SDS011;52726;48.852;9.152;2022-08-19T06:46:18;28.70;;;16.50;;
65971;SDS011;52726;48.852;9.152;2022-08-19T06:48:44;21.30;;;14.60;;
65971;SDS011;52726;48.852;9.152;2022-08-19T06:51:11;22.55;;;14.23;;
65971;SDS011;52726;48.852;9.152;2022-08-19T06:53:40;24.10;;;15.68;;
65971;SDS011;52726;48.852;9.152;2022-08-19T06:56:06;22.58;;;15.63;;
65971;SDS011;52726;48.852;9.152;2022-08-19T06:58:31;25.42;;;15.38;;
65971;SDS011;52726;48.852;9.152;2022-08-19T07:01:01;22.55;;;14.70;;
65971;SDS011;52726;48.852;9.152;2022-08-19T07:03:32;22.23;;;14.77;;
65971;SDS011;52726;48.852;9.152;2022-08-19T07:06:09;21.63;;;14.98;;
65971;SDS011;52726;48.852;9.152;2022-08-19T07:08:37;23.67;;;15.60;;
65971;SDS011;52726;48.852;9.152;2022-08-19T07:11:09;22.77;;;15.27;;
65971;SDS011;52726;48.852;9.152;2022-08-19T07:13:36;26.67;;;15.18;;
65971;SDS011;52726;48.852;9.152;2022-08-19T07:16:13;27.17;;;14.38;;
65971;SDS011;52726;48.852;9.152;2022-08-19T07:18:40;30.10;;;14.60;;
65971;SDS011;52726;48.852;9.152;2022-08-19T07:21:08;21.65;;;14.60;;
65971;SDS011;52726;48.852;9.152;2022-08-19T07:23:35;20.67;;;14.77;;
65971;SDS011;52726;48.852;9.152;2022-08-19T07:26:05;26.58;;;14.35;;
65971;SDS011;52726;48.852;9.152;2022-08-19T07:28:35;24.10;;;14.02;;
65971;SDS011;52726;48.852;9.152;2022-08-19T07:31:04;24.02;;;14.38;;
65971;SDS011;52726;48.852;9.152;2022-08-19T07:33:33;20.23;;;12.73;;
65971;SDS011;52726;48.852;9.152;2022-08-19T07:36:00;23.67;;;14.40;;
65971;SDS011;52726;48.852;9.152;2022-08-19T07:38:26;25.63;;;13.85;;
65971;SDS011;52726;48.852;9.152;2022-08-19T07:40:51;22.80;;;13.27;;
65971;SDS011;52726;48.852;9.152;2022-08-19T07:43:16;21.17;;;13.38;;
65971;SDS011;52726;48.852;9.152;2022-08-19T07:45:50;20.48;;;13.55;;
65971;SDS011;52726;48.852;9.152;2022-08-19T07:48:15;18.13;;;13.38;;
65971;SDS011;52726;48.852;9.152;2022-08-19T07:50:41;21.20;;;13.20;;
65971;SDS011;52726;48.852;9.152;2022-08-19T07:53:06;21.08;;;12.77;;
65971;SDS011;52726;48.852;9.152;2022-08-19T07:55:32;21.52;;;13.25;;
65971;SDS011;52726;48.852;9.152;2022-08-19T07:57:59;22.00;;;13.02;;
65971;SDS011;52726;48.852;9.152;2022-08-19T08:00:25;20.85;;;12.10;;
65971;SDS011;52726;48.852;9.152;2022-08-19T08:02:51;20.75;;;12.93;;
65971;SDS011;52726;48.852;9.152;2022-08-19T08:05:17;18.17;;;12.98;;
65971;SDS011;52726;48.852;9.152;2022-08-19T08:08:01;21.15;;;12.82;;
65971;SDS011;52726;48.852;9.152;2022-08-19T08:10:45;19.13;;;11.85;;
65971;SDS011;52726;48.852;9.152;2022-08-19T08:13:10;22.13;;;12.75;;
65971;SDS011;52726;48.852;9.152;2022-08-19T08:15:37;18.50;;;13.10;;
65971;SDS011;52726;48.852;9.152;2022-08-19T08:18:03;26.27;;;12.45;;
65971;SDS011;52726;48.852;9.152;2022-08-19T08:20:29;20.25;;;12.15;;
65971;SDS011;52726;48.852;9.152;2022-08-19T08:22:55;19.35;;;13.50;;
65971;SDS011;52726;48.852;9.152;2022-08-19T08:25:39;16.50;;;11.45;;
65971;SDS011;52726;48.852;9.152;2022-08-19T08:28:04;17.38;;;11.95;;
65971;SDS011;52726;48.852;9.152;2022-08-19T08:30:30;19.95;;;13.43;;
65971;SDS011;52726;48.852;9.152;2022-08-19T08:32:57;22.15;;;11.95;;
65971;SDS011;52726;48.852;9.152;2022-08-19T08:35:23;18.48;;;12.73;;
65971;SDS011;52726;48.852;9.152;2022-08-19T08:37:50;18.38;;;12.10;;
65971;SDS011;52726;48.852;9.152;2022-08-19T08:40:19;21.88;;;12.88;;
65971;SDS011;52726;48.852;9.152;2022-08-19T08:45:44;20.42;;;12.88;;
65971;SDS011;52726;48.852;9.152;2022-08-19T08:48:18;17.53;;;11.73;;
65971;SDS011;52726;48.852;9.152;2022-08-19T08:50:48;19.10;;;13.52;;
65971;SDS011;52726;48.852;9.152;2022-08-19T08:53:17;22.42;;;12.85;;
65971;SDS011;52726;48.852;9.152;2022-08-19T08:55:44;15.68;;;10.95;;
65971;SDS011;52726;48.852;9.152;2022-08-19T08:58:15;20.33;;;11.43;;
65971;SDS011;52726;48.852;9.152;2022-08-19T09:00:46;17.45;;;12.05;;
65971;SDS011;52726;48.852;9.152;2022-08-19T09:03:24;18.00;;;11.88;;
65971;SDS011;52726;48.852;9.152;2022-08-19T09:08:32;17.10;;;11.77;;
65971;SDS011;52726;48.852;9.152;2022-08-19T09:11:10;22.10;;;11.88;;
65971;SDS011;52726;48.852;9.152;2022-08-19T09:13:55;14.50;;;10.65;;
65971;SDS011;52726;48.852;9.152;2022-08-19T09:16:44;22.95;;;10.32;;
65971;SDS011;52726;48.852;9.152;2022-08-19T09:19:10;14.85;;;9.93;;
65971;SDS011;52726;48.852;9.152;2022-08-19T09:21:36;16.10;;;10.73;;
65971;SDS011;52726;48.852;9.152;2022-08-19T09:24:01;14.05;;;9.60;;
65971;SDS011;52726;48.852;9.152;2022-08-19T09:26:27;16.85;;;10.82;;
65971;SDS011;52726;48.852;9.152;2022-08-19T09:28:53;16.70;;;10.38;;
65971;SDS011;52726;48.852;9.152;2022-08-19T09:31:20;15.98;;;10.15;;
65971;SDS011;52726;48.852;9.152;2022-08-19T09:33:48;14.70;;;10.48;;
65971;SDS011;52726;48.852;9.152;2022-08-19T09:36:15;15.65;;;9.65;;
65971;SDS011;52726;48.852;9.152;2022-08-19T09:38:43;16.52;;;10.68;;
65971;SDS011;52726;48.852;9.152;2022-08-19T09:41:13;18.75;;;9.93;;
65971;SDS011;52726;48.852;9.152;2022-08-19T09:43:43;16.85;;;10.27;;
65971;SDS011;52726;48.852;9.152;2022-08-19T09:46:11;12.77;;;9.10;;
65971;SDS011;52726;48.852;9.152;2022-08-19T09:48:37;18.98;;;9.40;;
65971;SDS011;52726;48.852;9.152;2022-08-19T09:51:09;12.57;;;8.90;;
65971;SDS011;52726;48.852;9.152;2022-08-19T09:53:36;14.25;;;9.10;;
65971;SDS011;52726;48.852;9.152;2022-08-19T09:56:03;12.48;;;8.07;;
65971;SDS011;52726;48.852;9.152;2022-08-19T09:58:29;15.85;;;8.77;;
65971;SDS011;52726;48.852;9.152;2022-08-19T10:00:55;13.40;;;9.57;;
65971;SDS011;52726;48.852;9.152;2022-08-19T10:03:22;12.85;;;9.35;;
65971;SDS011;52726;48.852;9.152;2022-08-19T10:05:47;14.35;;;9.43;;
65971;SDS011;52726;48.852;9.152;2022-08-19T10:08:13;14.18;;;9.48;;
65971;SDS011;52726;48.852;9.152;2022-08-19T10:10:40;11.70;;;9.07;;
65971;SDS011;52726;48.852;9.152;2022-08-19T10:13:10;20.17;;;10.55;;
65971;SDS011;52726;48.852;9.152;2022-08-19T10:15:35;12.25;;;8.65;;
65971;SDS011;52726;48.852;9.152;2022-08-19T10:18:04;14.30;;;8.73;;
65971;SDS011;52726;48.852;9.152;2022-08-19T10:20:30;13.10;;;9.00;;
65971;SDS011;52726;48.852;9.152;2022-08-19T10:22:55;13.07;;;8.10;;
65971;SDS011;52726;48.852;9.152;2022-08-19T10:25:20;12.20;;;7.97;;
65971;SDS011;52726;48.852;9.152;2022-08-19T10:27:46;13.25;;;8.38;;
65971;SDS011;52726;48.852;9.152;2022-08-19T10:30:11;13.88;;;8.60;;
65971;SDS011;52726;48.852;9.152;2022-08-19T10:32:37;11.48;;;7.95;;
65971;SDS011;52726;48.852;9.152;2022-08-19T10:35:04;14.27;;;7.63;;
65971;SDS011;52726;48.852;9.152;2022-08-19T10:37:34;12.25;;;8.60;;
65971;SDS011;52726;48.852;9.152;2022-08-19T10:40:02;11.60;;;8.73;;
65971;SDS011;52726;48.852;9.152;2022-08-19T10:42:29;12.30;;;7.50;;
65971;SDS011;52726;48.852;9.152;2022-08-19T10:44:56;12.20;;;7.30;;
65971;SDS011;52726;48.852;9.152;2022-08-19T10:47:21;7.78;;;6.15;;
65971;SDS011;52726;48.852;9.152;2022-08-19T10:49:48;11.38;;;6.50;;
65971;SDS011;52726;48.852;9.152;2022-08-19T10:52:32;10.57;;;6.57;;
65971;SDS011;52726;48.852;9.152;2022-08-19T10:55:02;10.38;;;6.00;;
65971;SDS011;52726;48.852;9.152;2022-08-19T10:57:50;11.48;;;6.65;;
65971;SDS011;52726;48.852;9.152;2022-08-19T11:00:17;11.43;;;7.07;;
65971;SDS011;52726;48.852;9.152;2022-08-19T11:02:43;9.95;;;6.63;;
65971;SDS011;52726;48.852;9.152;2022-08-19T11:05:09;9.95;;;5.72;;
65971;SDS011;52726;48.852;9.152;2022-08-19T11:07:38;8.68;;;6.13;;
65971;SDS011;52726;48.852;9.152;2022-08-19T11:10:04;9.23;;;6.25;;
65971;SDS011;52726;48.852;9.152;2022-08-19T11:12:30;8.07;;;6.30;;
65971;SDS011;52726;48.852;9.152;2022-08-19T11:14:55;8.85;;;6.50;;
65971;SDS011;52726;48.852;9.152;2022-08-19T11:17:21;8.48;;;5.53;;
65971;SDS011;52726;48.852;9.152;2022-08-19T11:19:48;11.48;;;6.07;;
65971;SDS011;52726;48.852;9.152;2022-08-19T11:22:14;7.53;;;5.43;;
65971;SDS011;52726;48.852;9.152;2022-08-19T11:24:40;8.30;;;5.43;;
65971;SDS011;52726;48.852;9.152;2022-08-19T11:27:06;8.27;;;5.40;;
65971;SDS011;52726;48.852;9.152;2022-08-19T11:29:34;8.02;;;5.30;;
65971;SDS011;52726;48.852;9.152;2022-08-19T11:32:03;7.90;;;5.60;;
65971;SDS011;52726;48.852;9.152;2022-08-19T11:34:30;8.90;;;5.35;;
65971;SDS011;52726;48.852;9.152;2022-08-19T11:36:56;9.20;;;5.50;;
65971;SDS011;52726;48.852;9.152;2022-08-19T11:39:25;10.82;;;5.47;;
65971;SDS011;52726;48.852;9.152;2022-08-19T11:41:54;7.38;;;5.45;;
65971;SDS011;52726;48.852;9.152;2022-08-19T11:44:20;9.85;;;5.90;;
65971;SDS011;52726;48.852;9.152;2022-08-19T11:46:46;8.75;;;5.75;;
65971;SDS011;52726;48.852;9.152;2022-08-19T11:49:21;11.27;;;5.20;;
65971;SDS011;52726;48.852;9.152;2022-08-19T11:51:46;10.38;;;5.78;;
65971;SDS011;52726;48.852;9.152;2022-08-19T11:54:13;10.82;;;4.93;;
65971;SDS011;52726;48.852;9.152;2022-08-19T11:56:39;7.93;;;5.60;;
65971;SDS011;52726;48.852;9.152;2022-08-19T11:59:05;7.00;;;5.13;;
65971;SDS011;52726;48.852;9.152;2022-08-19T12:01:30;8.32;;;5.10;;
65971;SDS011;52726;48.852;9.152;2022-08-19T12:03:56;7.95;;;5.45;;
65971;SDS011;52726;48.852;9.152;2022-08-19T12:06:27;7.35;;;5.30;;
65971;SDS011;52726;48.852;9.152;2022-08-19T12:08:58;8.95;;;5.70;;
65971;SDS011;52726;48.852;9.152;2022-08-19T12:13:52;11.57;;;5.80;;
65971;SDS011;52726;48.852;9.152;2022-08-19T12:16:20;7.28;;;5.50;;
65971;SDS011;52726;48.852;9.152;2022-08-19T12:18:48;9.60;;;5.78;;
65971;SDS011;52726;48.852;9.152;2022-08-19T12:21:16;9.98;;;5.15;;
65971;SDS011;52726;48.852;9.152;2022-08-19T12:23:46;8.20;;;6.38;;
65971;SDS011;52726;48.852;9.152;2022-08-19T12:26:11;6.85;;;5.28;;
65971;SDS011;52726;48.852;9.152;2022-08-19T12:28:37;12.02;;;5.93;;
65971;SDS011;52726;48.852;9.152;2022-08-19T12:31:03;7.45;;;5.65;;
65971;SDS011;52726;48.852;9.152;2022-08-19T12:33:29;7.72;;;5.05;;
65971;SDS011;52726;48.852;9.152;2022-08-19T12:35:54;8.23;;;5.47;;
65971;SDS011;52726;48.852;9.152;2022-08-19T12:38:24;6.90;;;5.00;;
65971;SDS011;52726;48.852;9.152;2022-08-19T12:40:50;7.10;;;5.18;;
65971;SDS011;52726;48.852;9.152;2022-08-19T12:43:17;8.32;;;4.97;;
65971;SDS011;52726;48.852;9.152;2022-08-19T12:45:43;6.72;;;4.90;;
65971;SDS011;52726;48.852;9.152;2022-08-19T12:48:09;6.63;;;5.25;;
65971;SDS011;52726;48.852;9.152;2022-08-19T12:50:35;7.60;;;5.03;;
65971;SDS011;52726;48.852;9.152;2022-08-19T12:53:01;6.82;;;4.88;;
65971;SDS011;52726;48.852;9.152;2022-08-19T12:55:26;7.35;;;4.68;;
65971;SDS011;52726;48.852;9.152;2022-08-19T12:57:53;6.63;;;4.55;;
65971;SDS011;52726;48.852;9.152;2022-08-19T13:00:20;6.05;;;4.40;;
65971;SDS011;52726;48.852;9.152;2022-08-19T13:02:47;9.65;;;5.70;;
65971;SDS011;52726;48.852;9.152;2022-08-19T13:05:26;8.63;;;5.65;;
65971;SDS011;52726;48.852;9.152;2022-08-19T13:07:54;7.43;;;5.40;;
65971;SDS011;52726;48.852;9.152;2022-08-19T13:10:22;6.95;;;4.85;;
65971;SDS011;52726;48.852;9.152;2022-08-19T13:12:50;9.02;;;5.90;;
65971;SDS011;52726;48.852;9.152;2022-08-19T13:15:17;9.27;;;5.30;;
65971;SDS011;52726;48.852;9.152;2022-08-19T13:17:46;8.57;;;5.57;;
65971;SDS011;52726;48.852;9.152;2022-08-19T13:20:14;7.75;;;5.25;;
65971;SDS011;52726;48.852;9.152;2022-08-19T13:22:40;12.52;;;5.60;;
65971;SDS011;52726;48.852;9.152;2022-08-19T13:25:07;10.32;;;5.63;;
65971;SDS011;52726;48.852;9.152;2022-08-19T13:27:34;10.32;;;5.82;;
65971;SDS011;52726;48.852;9.152;2022-08-19T13:30:00;10.73;;;5.35;;
65971;SDS011;52726;48.852;9.152;2022-08-19T13:32:44;7.15;;;4.90;;
65971;SDS011;52726;48.852;9.152;2022-08-19T13:35:29;7.03;;;4.75;;
65971;SDS011;52726;48.852;9.152;2022-08-19T13:37:54;7.45;;;5.25;;
65971;SDS011;52726;48.852;9.152;2022-08-19T13:40:21;11.80;;;7.80;;
65971;SDS011;52726;48.852;9.152;2022-08-19T13:45:19;22.92;;;11.77;;
65971;SDS011;52726;48.852;9.152;2022-08-19T13:47:46;23.05;;;13.65;;
65971;SDS011;52726;48.852;9.152;2022-08-19T13:50:14;19.20;;;12.57;;
65971;SDS011;52726;48.852;9.152;2022-08-19T13:52:44;24.50;;;13.20;;
65971;SDS011;52726;48.852;9.152;2022-08-19T13:55:10;21.73;;;14.45;;
65971;SDS011;52726;48.852;9.152;2022-08-19T13:57:37;21.85;;;14.40;;
65971;SDS011;52726;48.852;9.152;2022-08-19T14:00:11;22.88;;;14.95;;
65971;SDS011;52726;48.852;9.152;2022-08-19T14:02:39;20.17;;;13.60;;
65971;SDS011;52726;48.852;9.152;2022-08-19T14:05:05;19.73;;;14.77;;
65971;SDS011;52726;48.852;9.152;2022-08-19T14:07:33;22.92;;;15.45;;
65971;SDS011;52726;48.852;9.152;2022-08-19T14:09:59;23.65;;;14.70;;
65971;SDS011;52726;48.852;9.152;2022-08-19T14:12:24;28.05;;;16.13;;
65971;SDS011;52726;48.852;9.152;2022-08-19T14:14:49;23.30;;;16.02;;
65971;SDS011;52726;48.852;9.152;2022-08-19T14:17:15;20.27;;;15.00;;
65971;SDS011;52726;48.852;9.152;2022-08-19T14:19:41;21.25;;;14.23;;
65971;SDS011;52726;48.852;9.152;2022-08-19T14:22:08;24.90;;;17.05;;
65971;SDS011;52726;48.852;9.152;2022-08-19T14:24:33;23.63;;;16.00;;
65971;SDS011;52726;48.852;9.152;2022-08-19T14:26:59;23.98;;;16.63;;
65971;SDS011;52726;48.852;9.152;2022-08-19T14:29:25;25.95;;;16.73;;
65971;SDS011;52726;48.852;9.152;2022-08-19T14:31:52;25.25;;;15.55;;
65971;SDS011;52726;48.852;9.152;2022-08-19T14:34:18;20.45;;;15.30;;
65971;SDS011;52726;48.852;9.152;2022-08-19T14:36:43;24.73;;;16.08;;
65971;SDS011;52726;48.852;9.152;2022-08-19T14:39:09;26.15;;;16.38;;
65971;SDS011;52726;48.852;9.152;2022-08-19T14:41:36;22.40;;;15.25;;
65971;SDS011;52726;48.852;9.152;2022-08-19T14:44:05;26.05;;;15.60;;
65971;SDS011;52726;48.852;9.152;2022-08-19T14:46:31;20.08;;;15.10;;
65971;SDS011;52726;48.852;9.152;2022-08-19T14:48:56;20.00;;;14.73;;